Fair Haven, VT

2014 Október 23 05:15 PM (EDT időzóna) (GMT -0400)
Crystal Beach | Change Station
CLOSE
Current Station
Personal Weather Stations
Location: Bomoseen, VT
Elevation: 446 ft
Közeli meteorológiai állomások

Elev 446 ft 43.66 °N, 73.19 °W | Updated 11 seconds ago

Borús
Borús
44.5 °F
Hőérzet 43 °F
N
4.0
Szél: változó Szél: from észak-északkeleti
Gusts 10.0 mph

Ma
High -- | Low -- °F
--% Csapadék valószínű
Tegnapi
High -- | Low -- °F
Precip. -- hvlyk.
7:17 AM 5:56 PM
Fogyó holdsarló, 0% visible
Légnyomás 29.82 hvlyk.
Látótávolság 10.0 mérföld
Felhők Borús 600 ft
Hőérzet 43 °F
Harmatpont 43 °F
Páratartalom 94%
Rainfall 0.29 hvlyk.
Hóréteg vastagsága Not available.
UV 0 out of 12
Pollen .10 out of 12
Ózon
Flu Activity Sporadic
METAR KRUT 232055Z 34009G14KT 10SM OVC006 06/06 A2982 RMK AO1 57003

More Conditions Fewer Conditions

Légnyomás 29.82 hvlyk.
Látótávolság 10.0 mérföld
Felhők Borús 600 ft
Hőérzet 43 °F
Harmatpont 43 °F
Páratartalom 94%
Rainfall 0.29 hvlyk.
Hóréteg vastagsága Not available.
UV 0 out of 12
Pollen .10 out of 12
Ózon
Flu Activity Sporadic
METAR KRUT 232055Z 34009G14KT 10SM OVC006 06/06 A2982 RMK AO1 57003

More Conditions Fewer Conditions

10-Day Weather Forecast

Almanac

Csillagászat

Oct. 23, 2014 Kel Nyugszik
Tényleges idő 7:17 AM EDT 5:56 PM EDT
Civil alkony 6:47 AM EDT 6:26 PM EDT
Tengerészeti alkony 6:14 AM EDT 6:59 PM EDT
Csillagászati alkony 5:41 AM EDT 7:32 PM EDT
Hold 6:53 AM EDT 5:56 PM EDT
Látható fény időtartama 11h 38m
A nap hossza
10h 39m
Tomorrow will be 2m 47s shorter.
Fogyó holdsarló, 0% of the Moon is Illuminated
Ma
Fogyó holdsarló
Oct 23
Új
Oct 30
első negyed
Nov 6
telihold
Nov 14
utolsó negyed

Today's Extremes

State Highs State Lows

Community

WunderPhotos

Upload Photos

1,764,372 Fotók feltöltve.

WunderBlogs® & News

By Dr. Jeff Masters
Director of Meteorology, Weather Underground
By Kari Strenfel
Meteorologist, Weather Underground
By Christopher C. Burt
Weather Historian, Weather Underground
October 23, 2014
October 23, 2014
October 23, 2014

Nearby

A levegő minősége

  A levegő minősége AQ Index Szennyezőanyag
Tegnapi
OZONE
Mai
OZONE
Csütörtök
PM2.5
Péntek
PM2.5

Hóréteg vastagsága

Station Depth Elevation
No new snow has been reported.

Earthquake Activity

város Distance Mag. Time & Date
No recent earthquake activity has been reported nearby.
Minimum magnitude displayed is 2.5.

Coastal Water Temperatures

Hely Hőmérséklet
No Stations Reporting

Közeli meteorológiai állomások